Time;durP1;ratioP1;P1;durP2;ratioP2;P2;SDS_P1;SDS_P2;PMS_P1;PMS_P2;Temp;Humidity;BMP_temperature;BMP_pressure;BME280_temperature;BME280_humidity;BME280_pressure;Samples;Min_cycle;Max_cycle;Signal;HPM_P1;HPM_P2
2024/01/16 00:01:31;;;;;;;1315.80;999.90;;;26.60;99.90;;;;;;5013981;28;20097;-69
2024/01/16 00:03:57;;;;;;;1332.57;999.90;;;26.70;99.90;;;;;;5013768;28;20025;-68
2024/01/16 00:06:24;;;;;;;1321.18;999.90;;;26.70;99.90;;;;;;5014190;28;20061;-69
2024/01/16 00:08:50;;;;;;;1308.53;999.90;;;26.70;99.90;;;;;;5013964;28;20030;-68
2024/01/16 00:11:17;;;;;;;1335.72;999.90;;;26.70;99.90;;;;;;5013919;28;20030;-70
2024/01/16 00:13:43;;;;;;;1332.93;999.90;;;26.70;99.90;;;;;;5013921;28;20033;-70
2024/01/16 00:16:10;;;;;;;1303.18;999.90;;;26.70;99.90;;;;;;5013781;28;20040;-71
2024/01/16 00:18:36;;;;;;;1309.20;999.90;;;26.70;99.90;;;;;;5013729;28;20105;-70
2024/01/16 00:21:03;;;;;;;1321.32;999.90;;;26.70;99.90;;;;;;5013700;28;20029;-70
2024/01/16 00:23:32;;;;;;;1343.25;999.90;;;26.80;99.90;;;;;;5013851;28;20438;-70
2024/01/16 00:25:59;;;;;;;1316.28;999.90;;;26.80;99.90;;;;;;5013666;28;20049;-69
2024/01/16 00:28:25;;;;;;;1287.65;999.90;;;26.80;99.90;;;;;;5013497;28;20041;-71
2024/01/16 00:30:52;;;;;;;1336.93;999.90;;;26.80;99.90;;;;;;5013736;28;20096;-70
2024/01/16 00:33:18;;;;;;;1328.00;999.90;;;26.70;99.90;;;;;;5013684;28;20026;-70
2024/01/16 00:35:45;;;;;;;1328.78;999.90;;;26.70;99.90;;;;;;5013315;28;20026;-70
2024/01/16 00:38:11;;;;;;;1333.32;999.90;;;26.70;99.90;;;;;;5013650;28;20013;-70
2024/01/16 00:40:38;;;;;;;1330.35;999.90;;;26.70;99.90;;;;;;5013655;28;20018;-69
2024/01/16 00:43:05;;;;;;;1309.03;999.90;;;26.80;99.90;;;;;;5013400;28;20040;-70
2024/01/16 00:45:31;;;;;;;1329.43;999.90;;;26.90;99.90;;;;;;5013587;28;20037;-69
2024/01/16 00:47:57;;;;;;;1295.40;999.90;;;26.90;99.90;;;;;;5013664;28;20375;-70
2024/01/16 00:50:24;;;;;;;1328.72;999.90;;;26.90;99.90;;;;;;5013360;28;20030;-70
2024/01/16 00:52:51;;;;;;;1301.53;999.90;;;26.90;99.90;;;;;;5007239;28;20120;-70
2024/01/16 00:55:17;;;;;;;1327.20;999.90;;;27.00;99.90;;;;;;5000728;28;20038;-70
2024/01/16 00:57:44;;;;;;;1327.60;999.90;;;27.10;99.90;;;;;;4993713;28;20521;-70
2024/01/16 01:00:11;;;;;;;1319.45;999.90;;;27.10;99.90;;;;;;4994612;28;20030;-70
2024/01/16 01:02:38;;;;;;;1327.15;999.90;;;27.20;99.90;;;;;;4994260;28;20035;-70
2024/01/16 01:05:04;;;;;;;1336.25;999.90;;;27.20;99.90;;;;;;4993844;28;20058;-71
2024/01/16 01:07:31;;;;;;;1302.18;999.90;;;27.20;99.90;;;;;;4994187;28;20022;-71
2024/01/16 01:09:57;;;;;;;1330.53;999.90;;;27.20;99.90;;;;;;4993710;28;20026;-68
2024/01/16 01:12:24;;;;;;;1331.10;999.90;;;27.30;99.90;;;;;;4993686;28;20039;-68
2024/01/16 01:14:50;;;;;;;1339.00;999.90;;;27.30;99.90;;;;;;4993923;28;20030;-68
2024/01/16 01:17:17;;;;;;;1299.80;999.90;;;27.40;99.90;;;;;;4993712;28;20084;-68
2024/01/16 01:19:44;;;;;;;1329.93;999.90;;;27.50;99.90;;;;;;4993778;28;20027;-70
2024/01/16 01:22:10;;;;;;;1338.60;999.90;;;27.50;99.90;;;;;;4993596;28;20383;-70
2024/01/16 01:24:37;;;;;;;1320.30;999.90;;;27.60;99.90;;;;;;4993443;28;20126;-70
2024/01/16 01:27:04;;;;;;;1324.45;999.90;;;27.60;99.90;;;;;;4993688;28;20022;-69
2024/01/16 01:29:30;;;;;;;1292.20;999.90;;;27.70;99.90;;;;;;5010209;28;20025;-70
2024/01/16 01:31:57;;;;;;;1330.65;999.90;;;27.70;99.90;;;;;;5013335;28;20056;-70
2024/01/16 01:34:23;;;;;;;1335.72;999.90;;;27.80;99.90;;;;;;5012690;28;20502;-70
2024/01/16 01:36:50;;;;;;;1329.82;999.90;;;27.90;99.90;;;;;;5013052;28;20112;-70
2024/01/16 01:39:16;;;;;;;1319.63;999.90;;;27.90;99.90;;;;;;5013180;28;20026;-71
2024/01/16 01:41:43;;;;;;;1315.25;999.90;;;27.90;99.90;;;;;;5013151;28;20061;-71
2024/01/16 01:44:15;;;;;;;1298.13;999.90;;;27.90;99.90;;;;;;5012963;28;20566;-72
2024/01/16 01:46:42;;;;;;;1328.70;999.90;;;27.90;99.90;;;;;;5014545;28;20100;-71
2024/01/16 01:49:09;;;;;;;1299.95;999.90;;;28.00;99.90;;;;;;5016744;28;20475;-72
2024/01/16 01:51:35;;;;;;;1336.28;999.90;;;28.00;99.90;;;;;;5016600;28;20022;-70
2024/01/16 01:54:02;;;;;;;1333.65;999.90;;;28.10;99.90;;;;;;5016655;28;20101;-71
2024/01/16 01:56:29;;;;;;;1305.30;999.90;;;28.10;99.90;;;;;;5016559;28;20101;-71
2024/01/16 01:58:58;;;;;;;1343.10;999.90;;;28.20;99.90;;;;;;5016395;28;20109;-70
2024/01/16 02:01:27;;;;;;;1307.32;999.90;;;28.20;99.90;;;;;;5016425;28;20036;-70
2024/01/16 02:03:56;;;;;;;1347.55;999.90;;;28.20;99.90;;;;;;5021984;28;20478;-73
2024/01/16 02:06:23;;;;;;;1330.28;999.90;;;28.30;99.90;;;;;;5022880;28;20109;-76
2024/01/16 02:08:51;;;;;;;1331.15;999.90;;;28.30;99.90;;;;;;5024092;28;20021;-75
2024/01/16 02:11:17;;;;;;;1333.25;999.90;;;28.40;99.90;;;;;;5026310;28;20040;-75
2024/01/16 02:13:44;;;;;;;1310.47;999.90;;;28.50;99.90;;;;;;5025854;28;20541;-76
2024/01/16 02:16:35;;;;;;;1304.80;999.90;;;28.50;99.90;;;;;;5025016;28;20029;-69
2024/01/16 02:19:02;;;;;;;1331.53;999.90;;;28.60;99.90;;;;;;5023994;28;20118;-70
2024/01/16 02:21:31;;;;;;;1332.22;999.90;;;28.70;99.90;;;;;;5024662;28;20029;-70
2024/01/16 02:23:57;;;;;;;1326.80;999.90;;;28.60;99.90;;;;;;5022261;28;20022;-71
2024/01/16 02:26:24;;;;;;;1337.38;999.90;;;28.70;99.90;;;;;;5025296;28;20036;-70
2024/01/16 02:28:52;;;;;;;1330.05;999.90;;;28.70;99.90;;;;;;5026455;28;20383;-70
2024/01/16 02:31:19;;;;;;;1340.28;999.90;;;28.70;99.90;;;;;;5024854;28;20379;-69
2024/01/16 02:33:45;;;;;;;1326.15;999.90;;;28.70;99.90;;;;;;5024989;28;20024;-69
2024/01/16 02:36:12;;;;;;;1312.53;999.90;;;28.70;99.90;;;;;;5022525;28;20022;-71
2024/01/16 02:38:38;;;;;;;1317.68;999.90;;;28.70;99.90;;;;;;5022654;28;20060;-70
2024/01/16 02:41:05;;;;;;;1347.45;999.90;;;28.70;99.90;;;;;;5025981;28;20025;-70
2024/01/16 02:43:32;;;;;;;1334.78;999.90;;;28.70;99.90;;;;;;5025576;28;20038;-71
2024/01/16 02:45:59;;;;;;;1254.10;999.90;;;28.80;99.90;;;;;;5024103;28;20021;-69
2024/01/16 02:48:25;;;;;;;1338.40;999.90;;;28.80;99.90;;;;;;5025752;28;20028;-65
2024/01/16 02:50:52;;;;;;;1339.43;999.90;;;28.90;99.90;;;;;;5025488;28;20394;-67
2024/01/16 02:53:18;;;;;;;1336.18;999.90;;;29.00;99.90;;;;;;5017020;28;20472;-67
2024/01/16 02:55:45;;;;;;;1338.80;999.90;;;29.00;99.90;;;;;;5026554;28;20474;-66
2024/01/16 02:58:11;;;;;;;1338.60;999.90;;;29.00;99.90;;;;;;5025236;28;20076;-71
2024/01/16 03:00:38;;;;;;;1335.85;999.90;;;29.00;99.90;;;;;;5023783;28;20030;-74
2024/01/16 03:03:04;;;;;;;1330.03;999.90;;;29.10;99.90;;;;;;5023039;28;20036;-72
2024/01/16 03:05:31;;;;;;;1331.95;999.90;;;29.10;99.90;;;;;;5024766;28;20030;-71
2024/01/16 03:07:58;;;;;;;1255.75;999.90;;;29.20;99.90;;;;;;5025788;28;20025;-71
2024/01/16 03:10:24;;;;;;;1325.72;999.90;;;29.20;99.90;;;;;;5024163;28;20041;-71
2024/01/16 03:12:51;;;;;;;1330.70;999.90;;;29.30;99.90;;;;;;5024612;28;20429;-73
2024/01/16 03:15:17;;;;;;;1345.68;999.90;;;29.30;99.90;;;;;;5025829;28;20029;-73
2024/01/16 03:17:44;;;;;;;1338.93;999.90;;;29.40;99.90;;;;;;5024468;28;20030;-73
2024/01/16 03:20:11;;;;;;;1338.03;999.90;;;29.50;99.90;;;;;;5024535;28;20083;-73
2024/01/16 03:22:38;;;;;;;1344.15;999.90;;;29.60;99.90;;;;;;5025545;28;20060;-72
2024/01/16 03:25:05;;;;;;;1331.00;999.90;;;29.60;99.90;;;;;;5023285;28;20044;-73
2024/01/16 03:27:31;;;;;;;1338.00;999.90;;;29.70;99.90;;;;;;5024207;28;20085;-74
2024/01/16 03:29:58;;;;;;;1270.82;999.90;;;29.70;99.90;;;;;;5025842;28;20022;-69
2024/01/16 03:32:24;;;;;;;1338.38;999.90;;;29.80;99.90;;;;;;5023883;28;20544;-73
2024/01/16 03:34:51;;;;;;;1347.68;999.90;;;29.80;99.90;;;;;;5024353;28;20022;-74
2024/01/16 03:37:17;;;;;;;1360.78;999.90;;;29.80;99.90;;;;;;5025551;28;20026;-73
2024/01/16 03:39:45;;;;;;;1344.68;999.90;;;29.80;99.90;;;;;;5023714;28;20048;-72
2024/01/16 03:42:13;;;;;;;1294.15;999.90;;;29.90;99.90;;;;;;5024037;28;20022;-75
2024/01/16 03:44:40;;;;;;;1378.38;999.90;;;29.80;99.90;;;;;;5025019;28;20060;-73
2024/01/16 03:47:07;;;;;;;1368.25;999.90;;;29.90;99.90;;;;;;5023890;28;20022;-73
2024/01/16 03:49:34;;;;;;;1385.65;999.90;;;29.90;99.90;;;;;;5023552;28;20153;-74
2024/01/16 03:52:01;;;;;;;1407.80;999.90;;;29.90;99.90;;;;;;5025106;28;20026;-74
2024/01/16 03:54:27;;;;;;;1405.95;999.90;;;29.90;99.90;;;;;;5023790;28;20029;-74
2024/01/16 03:56:55;;;;;;;1379.65;999.90;;;29.90;99.90;;;;;;5023724;28;20044;-75
2024/01/16 03:59:23;;;;;;;1372.65;999.90;;;29.90;99.90;;;;;;5028568;28;20148;-73
2024/01/16 04:01:50;;;;;;;1308.53;999.90;;;30.00;99.90;;;;;;5028694;28;20025;-72
2024/01/16 04:04:16;;;;;;;1424.25;999.90;;;30.00;99.90;;;;;;5020333;28;20018;-71
2024/01/16 04:06:43;;;;;;;1386.72;999.90;;;30.10;99.90;;;;;;5024160;28;20067;-71
2024/01/16 04:09:10;;;;;;;1377.45;999.90;;;30.20;99.90;;;;;;5024601;28;20380;-73
2024/01/16 04:11:36;;;;;;;1356.82;999.90;;;30.30;99.90;;;;;;5020496;28;20068;-74
2024/01/16 04:14:03;;;;;;;1364.35;999.90;;;30.30;99.90;;;;;;5023487;28;20457;-73
2024/01/16 04:16:30;;;;;;;1370.90;999.90;;;30.30;99.90;;;;;;5023007;28;20108;-73
2024/01/16 04:18:56;;;;;;;1360.57;999.90;;;30.30;99.90;;;;;;5024070;28;20026;-74
2024/01/16 04:21:22;;;;;;;1388.40;999.90;;;30.30;99.90;;;;;;5023677;28;20028;-72
2024/01/16 04:23:49;;;;;;;1358.63;999.90;;;30.30;99.90;;;;;;5024272;28;20040;-72
2024/01/16 04:26:15;;;;;;;1348.47;999.90;;;30.40;99.90;;;;;;5023109;28;20076;-70
2024/01/16 04:28:42;;;;;;;1303.53;999.90;;;30.30;99.90;;;;;;5023905;28;20112;-70
2024/01/16 04:31:11;;;;;;;1327.85;999.90;;;30.30;99.90;;;;;;5024369;28;20029;-72
2024/01/16 04:33:39;;;;;;;1356.90;999.90;;;30.30;99.90;;;;;;5022745;28;20475;-72
2024/01/16 04:36:06;;;;;;;1352.97;999.90;;;30.30;99.90;;;;;;5022724;28;20030;-72
2024/01/16 04:38:33;;;;;;;1350.47;999.90;;;30.30;99.90;;;;;;5024340;28;20036;-71
2024/01/16 04:41:02;;;;;;;1348.80;999.90;;;30.50;99.90;;;;;;5023002;28;20021;-71
2024/01/16 04:43:29;;;;;;;1362.90;999.90;;;30.70;99.90;;;;;;5022050;28;20048;-70
2024/01/16 04:45:55;;;;;;;1335.57;999.90;;;30.70;99.90;;;;;;5024053;28;20018;-73
2024/01/16 04:48:22;;;;;;;1303.38;999.90;;;30.80;99.90;;;;;;5017557;28;20022;-73
2024/01/16 04:50:48;;;;;;;1358.55;999.90;;;30.70;99.90;;;;;;5020646;28;20391;-75
2024/01/16 04:53:16;;;;;;;1319.68;999.90;;;30.70;99.90;;;;;;5021190;28;20470;-73
2024/01/16 04:55:42;;;;;;;1352.25;999.90;;;30.80;99.90;;;;;;5023797;28;20418;-71
2024/01/16 04:58:09;;;;;;;1495.72;999.90;;;30.90;99.90;;;;;;5024002;28;20026;-71
2024/01/16 05:00:35;;;;;;;1374.93;999.90;;;31.00;99.90;;;;;;5016421;28;20517;-71
2024/01/16 05:03:05;;;;;;;1401.70;999.90;;;31.20;99.90;;;;;;5022096;28;20379;-72
2024/01/16 05:05:31;;;;;;;1445.57;999.90;;;31.30;99.90;;;;;;5023852;28;20025;-73
2024/01/16 05:08:00;;;;;;;1436.05;999.90;;;31.30;99.90;;;;;;5023293;28;20023;-73
2024/01/16 05:10:27;;;;;;;1389.10;999.90;;;31.30;99.90;;;;;;5021599;28;20017;-74
2024/01/16 05:12:53;;;;;;;1351.57;999.90;;;31.30;99.90;;;;;;5023138;28;20421;-73
2024/01/16 05:15:20;;;;;;;1392.43;999.90;;;31.20;99.90;;;;;;5023233;28;20025;-72
2024/01/16 05:17:46;;;;;;;1373.97;999.90;;;31.20;99.90;;;;;;5023483;28;20017;-73
2024/01/16 05:20:13;;;;;;;1354.85;999.90;;;31.20;99.90;;;;;;5022740;28;20018;-73
2024/01/16 05:22:39;;;;;;;1383.05;999.90;;;31.10;99.90;;;;;;5027335;28;20029;-75
2024/01/16 05:25:09;;;;;;;1373.13;999.90;;;31.30;99.90;;;;;;5020485;28;20033;-76
2024/01/16 05:27:35;;;;;;;1372.50;999.90;;;31.30;99.90;;;;;;5018228;28;20084;-73
2024/01/16 05:30:02;;;;;;;1368.78;999.90;;;31.40;99.90;;;;;;5018173;28;20029;-71
2024/01/16 05:32:28;;;;;;;1379.70;999.90;;;31.50;99.90;;;;;;5017834;28;20493;-73
2024/01/16 05:34:55;;;;;;;1370.30;999.90;;;31.50;99.90;;;;;;5018155;28;20026;-73
2024/01/16 05:37:21;;;;;;;1367.82;999.90;;;31.50;99.90;;;;;;5017981;28;20018;-72
2024/01/16 05:39:48;;;;;;;1330.00;999.90;;;31.60;99.90;;;;;;5017802;28;20109;-72
2024/01/16 05:42:14;;;;;;;1368.70;999.90;;;31.60;99.90;;;;;;5017347;28;20030;-72
2024/01/16 05:44:41;;;;;;;1364.85;999.90;;;31.50;99.90;;;;;;5017377;28;20470;-72
2024/01/16 05:47:07;;;;;;;1426.07;999.90;;;31.50;99.90;;;;;;5016956;28;20482;-72
2024/01/16 05:49:34;;;;;;;1374.03;999.90;;;31.60;99.90;;;;;;5026450;28;20101;-70
2024/01/16 05:52:00;;;;;;;1380.93;999.90;;;31.50;99.90;;;;;;5025694;28;20022;-70
2024/01/16 05:54:28;;;;;;;1370.15;999.90;;;31.60;99.90;;;;;;5027085;28;20021;-69
2024/01/16 05:56:55;;;;;;;1382.05;999.90;;;31.60;99.90;;;;;;5026176;28;20037;-69
2024/01/16 05:59:21;;;;;;;1408.55;999.90;;;31.60;99.90;;;;;;5025299;28;20492;-70
2024/01/16 06:01:49;;;;;;;1391.32;999.90;;;31.60;99.90;;;;;;5022569;28;20026;-69
2024/01/16 06:04:15;;;;;;;1412.95;999.90;;;31.70;99.90;;;;;;5025807;28;20025;-70
2024/01/16 06:06:47;;;;;;;1430.68;999.90;;;31.70;99.90;;;;;;5026916;28;20058;-70
2024/01/16 06:09:14;;;;;;;1417.63;999.90;;;31.70;99.90;;;;;;5019133;28;20088;-73
2024/01/16 06:11:41;;;;;;;1386.80;999.90;;;31.60;99.90;;;;;;5023777;28;20097;-68
2024/01/16 06:14:09;;;;;;;1400.70;999.90;;;31.60;99.90;;;;;;5032179;28;20032;-74
2024/01/16 06:16:36;;;;;;;1409.60;999.90;;;31.60;99.90;;;;;;5033710;28;20097;-73
2024/01/16 06:19:03;;;;;;;1383.57;999.90;;;31.60;99.90;;;;;;5025474;28;20080;-76
2024/01/16 06:21:29;;;;;;;1394.35;999.90;;;31.70;99.90;;;;;;5025025;28;20048;-74
2024/01/16 06:23:56;;;;;;;1403.93;999.90;;;31.70;99.90;;;;;;5031677;28;20029;-73
2024/01/16 06:26:22;;;;;;;1380.38;999.90;;;31.70;99.90;;;;;;5032177;28;20071;-74
2024/01/16 06:28:49;;;;;;;1418.40;999.90;;;31.70;99.90;;;;;;5021835;28;20030;-73
2024/01/16 06:31:17;;;;;;;1430.35;999.90;;;31.70;99.90;;;;;;5021640;28;20052;-74
2024/01/16 06:33:44;;;;;;;1429.47;999.90;;;31.80;99.90;;;;;;5023948;28;20201;-74
2024/01/16 06:36:10;;;;;;;1420.88;999.90;;;31.80;99.90;;;;;;5025649;28;20025;-74
2024/01/16 06:38:39;;;;;;;1410.30;999.90;;;31.70;99.90;;;;;;5025420;28;20029;-74
2024/01/16 06:41:06;;;;;;;1416.07;999.90;;;31.70;99.90;;;;;;5023960;28;20392;-75
2024/01/16 06:43:33;;;;;;;1408.63;999.90;;;31.80;99.90;;;;;;5025370;28;20053;-75
2024/01/16 06:45:59;;;;;;;1409.32;999.90;;;31.80;99.90;;;;;;5025552;28;20016;-75
2024/01/16 06:48:26;;;;;;;1408.22;999.90;;;31.80;99.90;;;;;;5023679;28;20018;-75
2024/01/16 06:50:53;;;;;;;1393.80;999.90;;;31.90;99.90;;;;;;5025517;28;20075;-74
2024/01/16 06:53:19;;;;;;;1426.10;999.90;;;32.00;99.90;;;;;;5025639;28;20026;-76
2024/01/16 06:55:46;;;;;;;1407.63;999.90;;;32.00;99.90;;;;;;5010177;28;20434;-74
2024/01/16 06:58:12;;;;;;;1381.53;999.90;;;32.00;99.90;;;;;;5021160;28;20025;-76
2024/01/16 07:00:41;;;;;;;1417.90;999.90;;;32.00;99.90;;;;;;5018299;28;20044;-74
2024/01/16 07:03:08;;;;;;;1448.93;999.90;;;32.00;99.90;;;;;;5028681;28;20025;-75
2024/01/16 07:05:34;;;;;;;1420.30;999.90;;;32.00;99.90;;;;;;5030045;28;20013;-74
2024/01/16 07:08:01;;;;;;;1409.95;999.90;;;32.00;99.90;;;;;;5030138;28;20020;-73
2024/01/16 07:10:27;;;;;;;1408.75;999.90;;;32.00;99.90;;;;;;5027850;28;20037;-73
2024/01/16 07:12:55;;;;;;;1400.95;999.90;;;32.00;99.90;;;;;;5028641;28;20021;-74
2024/01/16 07:15:21;;;;;;;1414.78;999.90;;;32.00;99.90;;;;;;5029818;28;20018;-73
2024/01/16 07:17:48;;;;;;;1406.65;999.90;;;32.00;99.90;;;;;;5028521;28;20052;-77
2024/01/16 07:20:14;;;;;;;1402.68;999.90;;;32.00;99.90;;;;;;5029663;28;20053;-76
2024/01/16 07:22:41;;;;;;;1367.50;999.90;;;32.00;99.90;;;;;;5029576;28;20027;-74
2024/01/16 07:25:08;;;;;;;1383.75;999.90;;;32.00;99.90;;;;;;5028963;28;20069;-73
2024/01/16 07:27:35;;;;;;;1370.72;999.90;;;32.10;99.90;;;;;;5029815;28;20406;-74
2024/01/16 07:30:04;;;;;;;1347.85;999.90;;;32.20;99.90;;;;;;5029222;28;20025;-75
2024/01/16 07:32:31;;;;;;;1408.00;999.90;;;32.30;99.90;;;;;;5028429;28;20021;-72
2024/01/16 07:34:58;;;;;;;1392.93;999.90;;;32.40;99.90;;;;;;5028984;28;20025;-74
2024/01/16 07:37:24;;;;;;;1405.85;999.90;;;32.40;99.90;;;;;;5028605;28;20068;-74
2024/01/16 07:39:51;;;;;;;1413.85;999.90;;;32.40;99.90;;;;;;5028471;28;20017;-74
2024/01/16 07:42:18;;;;;;;1380.65;999.90;;;32.40;99.90;;;;;;5025876;28;20022;-75
2024/01/16 07:44:44;;;;;;;1405.38;999.90;;;32.40;99.90;;;;;;5020763;28;20021;-74
2024/01/16 07:47:11;;;;;;;1425.95;999.90;;;32.50;99.90;;;;;;5024163;28;20356;-73
2024/01/16 07:49:37;;;;;;;1397.65;999.90;;;32.50;99.90;;;;;;5024321;28;20017;-74
2024/01/16 07:52:04;;;;;;;1413.20;999.90;;;32.60;99.90;;;;;;5022639;28;20021;-70
2024/01/16 07:54:31;;;;;;;1397.78;999.90;;;32.60;99.90;;;;;;5019477;28;20434;-71
2024/01/16 07:56:57;;;;;;;1412.22;999.90;;;32.80;99.90;;;;;;5022338;28;20410;-70
2024/01/16 07:59:24;;;;;;;1436.18;999.90;;;32.80;99.90;;;;;;5021891;28;20071;-71
2024/01/16 08:01:50;;;;;;;1426.03;999.90;;;32.90;99.90;;;;;;5021237;28;20434;-71
2024/01/16 08:04:17;;;;;;;1430.35;999.90;;;32.90;99.90;;;;;;5021721;28;20105;-72
2024/01/16 08:06:44;;;;;;;1421.50;999.90;;;32.90;99.90;;;;;;5021606;28;20032;-70
2024/01/16 08:09:12;;;;;;;1411.57;999.90;;;32.70;99.90;;;;;;5021208;28;20487;-72
2024/01/16 08:11:39;;;;;;;1407.32;999.90;;;32.70;99.90;;;;;;5021761;28;20060;-71
2024/01/16 08:14:06;;;;;;;1408.10;999.90;;;32.70;99.90;;;;;;5021573;28;20048;-71
2024/01/16 08:16:32;;;;;;;1406.75;999.90;;;32.60;99.90;;;;;;5021043;28;20101;-72
2024/01/16 08:18:59;;;;;;;1410.13;999.90;;;32.60;99.90;;;;;;5021738;28;20025;-72
2024/01/16 08:21:26;;;;;;;1403.78;999.90;;;32.60;99.90;;;;;;5021422;28;20451;-71
2024/01/16 08:23:52;;;;;;;1419.90;999.90;;;32.50;99.90;;;;;;5020938;28;20045;-71
2024/01/16 08:26:19;;;;;;;1414.00;999.90;;;32.50;99.90;;;;;;5020183;28;20029;-71
2024/01/16 08:28:46;;;;;;;1423.85;999.90;;;32.50;99.90;;;;;;5024235;28;20017;-70
2024/01/16 08:31:12;;;;;;;1390.90;999.90;;;32.50;99.90;;;;;;5022848;28;20513;-71
2024/01/16 08:33:39;;;;;;;1393.68;999.90;;;32.50;99.90;;;;;;5023197;28;20076;-71
2024/01/16 08:36:05;;;;;;;1406.82;999.90;;;32.60;99.90;;;;;;5024294;28;20032;-71
2024/01/16 08:38:32;;;;;;;1415.60;999.90;;;32.70;99.90;;;;;;5014426;28;20040;-69
2024/01/16 08:40:58;;;;;;;1425.43;999.90;;;32.70;99.90;;;;;;5023171;28;20017;-70
2024/01/16 08:43:25;;;;;;;1416.88;999.90;;;32.80;99.90;;;;;;5023692;28;20548;-70
2024/01/16 08:45:51;;;;;;;1417.38;999.90;;;32.80;99.90;;;;;;5019469;28;20018;-70
2024/01/16 08:48:18;;;;;;;1424.57;999.90;;;32.90;99.90;;;;;;5022981;28;20009;-72
2024/01/16 08:50:45;;;;;;;1426.25;999.90;;;32.90;99.90;;;;;;5024025;28;20392;-71
2024/01/16 08:53:14;;;;;;;1426.32;999.90;;;32.90;99.90;;;;;;5020998;28;20026;-72
2024/01/16 08:55:41;;;;;;;1413.65;999.90;;;32.90;99.90;;;;;;5023252;28;20061;-72
2024/01/16 08:58:07;;;;;;;1448.85;999.90;;;32.90;99.90;;;;;;5023003;28;20424;-73
2024/01/16 09:00:34;;;;;;;1434.13;999.90;;;32.90;99.90;;;;;;5020383;28;20026;-72
2024/01/16 09:03:01;;;;;;;1431.97;999.90;;;32.80;99.90;;;;;;5017167;28;20026;-73
2024/01/16 09:05:28;;;;;;;1428.78;999.90;;;32.80;99.90;;;;;;5017082;28;20030;-73
2024/01/16 09:07:54;;;;;;;1407.25;999.90;;;32.80;99.90;;;;;;5015999;28;20076;-72
2024/01/16 09:10:21;;;;;;;1424.82;999.90;;;32.70;99.90;;;;;;5016460;28;20010;-73
2024/01/16 09:12:48;;;;;;;1441.95;999.90;;;32.70;99.90;;;;;;5016748;28;20076;-74
2024/01/16 09:15:15;;;;;;;1421.82;999.90;;;32.80;99.90;;;;;;5016886;28;20026;-73
2024/01/16 09:17:42;;;;;;;1455.32;999.90;;;32.80;99.90;;;;;;5016631;28;20022;-74
2024/01/16 09:20:09;;;;;;;1441.28;999.90;;;32.90;99.90;;;;;;5016997;28;20017;-73
2024/01/16 09:22:35;;;;;;;1437.07;999.90;;;32.90;99.90;;;;;;5016962;28;20414;-73
2024/01/16 09:25:01;;;;;;;1439.65;999.90;;;32.90;99.90;;;;;;5016481;28;20096;-72
2024/01/16 09:27:28;;;;;;;1525.25;999.90;;;32.90;99.90;;;;;;5016969;28;20022;-72
2024/01/16 09:29:55;;;;;;;1419.57;999.90;;;33.00;99.90;;;;;;5016652;28;20038;-73
2024/01/16 09:32:21;;;;;;;1434.63;999.90;;;33.00;99.90;;;;;;5016757;28;20153;-72
2024/01/16 09:34:47;;;;;;;1428.00;999.90;;;33.00;99.90;;;;;;5015850;28;20037;-71
2024/01/16 09:37:14;;;;;;;1443.93;999.90;;;33.00;99.90;;;;;;5016121;28;20478;-74
2024/01/16 09:39:41;;;;;;;1447.03;999.90;;;33.00;99.90;;;;;;5005968;28;20041;-73
2024/01/16 09:42:08;;;;;;;1441.88;999.90;;;33.00;99.90;;;;;;4997695;28;20547;-75
2024/01/16 09:44:35;;;;;;;1429.75;999.90;;;33.10;99.90;;;;;;5015548;28;20182;-74
2024/01/16 09:47:03;;;;;;;1402.10;999.90;;;33.10;99.90;;;;;;5017032;28;20433;-73
2024/01/16 09:49:30;;;;;;;1386.25;999.90;;;32.80;99.90;;;;;;5017176;28;20030;-72
2024/01/16 09:51:59;;;;;;;1368.32;999.90;;;32.50;99.90;;;;;;5016972;28;20022;-69
2024/01/16 09:54:26;;;;;;;1368.90;999.90;;;32.30;99.90;;;;;;5016745;28;20042;-69
2024/01/16 09:56:58;;;;;;;1370.95;999.90;;;32.10;99.90;;;;;;4997854;28;20033;-72
2024/01/16 09:59:26;;;;;;;1394.20;999.90;;;31.80;99.90;;;;;;5010938;28;20120;-70
2024/01/16 10:01:56;;;;;;;1390.82;999.90;;;31.60;99.90;;;;;;5023812;28;20421;-70
2024/01/16 10:04:22;;;;;;;1386.10;999.90;;;31.60;99.90;;;;;;5024554;28;20041;-71
2024/01/16 10:06:51;;;;;;;1391.80;999.90;;;31.60;99.90;;;;;;5022571;28;20011;-68
2024/01/16 10:09:18;;;;;;;1390.63;999.90;;;31.60;99.90;;;;;;5026875;28;20021;-71
2024/01/16 10:11:45;;;;;;;1395.15;999.90;;;31.40;99.90;;;;;;5025361;28;20029;-70
2024/01/16 10:17:09;;;;;;;1369.07;999.90;;;31.40;99.90;;;;;;5025963;28;20097;-69
2024/01/16 10:19:49;;;;;;;1390.07;999.90;;;31.30;99.90;;;;;;5023828;28;20109;-69
2024/01/16 10:22:21;;;;;;;1401.78;999.90;;;31.30;99.90;;;;;;5020381;28;20290;-69
2024/01/16 10:24:48;;;;;;;1417.05;999.90;;;31.20;99.90;;;;;;5026482;28;20038;-68
2024/01/16 10:27:17;;;;;;;1347.65;999.90;;;31.10;99.90;;;;;;5024308;28;20033;-70
2024/01/16 10:29:58;;;;;;;1375.47;999.90;;;31.00;99.90;;;;;;5024617;28;20017;-69
2024/01/16 10:32:37;;;;;;;1384.95;999.90;;;30.90;99.90;;;;;;5024972;28;20034;-69
2024/01/16 10:35:04;;;;;;;1365.72;999.90;;;30.90;99.90;;;;;;5028074;28;20014;-69
2024/01/16 10:37:44;;;;;;;1398.50;999.90;;;30.80;99.90;;;;;;5015267;28;20353;-68
2024/01/16 10:40:14;;;;;;;1392.63;999.90;;;30.90;99.90;;;;;;5025899;28;20022;-69
2024/01/16 10:42:41;;;;;;;1398.50;999.90;;;30.80;99.90;;;;;;5025259;28;21433;-70
2024/01/16 10:45:08;;;;;;;1393.15;999.90;;;30.80;99.90;;;;;;5020591;28;20029;-71
2024/01/16 10:47:37;;;;;;;1396.70;999.90;;;30.80;99.90;;;;;;5022316;28;20017;-76
2024/01/16 10:50:06;;;;;;;1365.18;999.90;;;30.90;99.90;;;;;;5025307;28;20014;-72
2024/01/16 10:52:34;;;;;;;1386.88;999.90;;;30.80;99.90;;;;;;5011438;28;20533;-76
2024/01/16 10:55:05;;;;;;;1392.50;999.90;;;30.80;99.90;;;;;;5005477;28;20042;-73
2024/01/16 10:57:34;;;;;;;1378.87;999.90;;;30.90;99.90;;;;;;5015715;28;20061;-74
2024/01/16 11:00:04;;;;;;;1362.68;999.90;;;30.80;99.90;;;;;;5016117;28;20025;-76
2024/01/16 11:02:42;;;;;;;1369.53;999.90;;;30.80;99.90;;;;;;5015454;28;20018;-76
2024/01/16 11:05:12;;;;;;;1364.88;999.90;;;30.80;99.90;;;;;;5019347;28;20096;-76
2024/01/16 11:07:41;;;;;;;1382.80;999.90;;;30.80;99.90;;;;;;5024566;28;20415;-75
2024/01/16 11:10:09;;;;;;;1393.97;999.90;;;30.80;99.90;;;;;;5020856;28;20030;-75
2024/01/16 11:12:39;;;;;;;1387.45;999.90;;;30.80;99.90;;;;;;5025024;28;20024;-76
2024/01/16 11:15:07;;;;;;;1396.55;999.90;;;30.70;99.90;;;;;;5020598;28;20030;-76
2024/01/16 11:17:36;;;;;;;1382.10;999.90;;;30.70;99.90;;;;;;5015229;28;20026;-73
2024/01/16 11:20:09;;;;;;;1356.85;999.90;;;30.60;99.90;;;;;;5015814;28;20093;-75
2024/01/16 11:22:41;;;;;;;1388.30;999.90;;;30.60;99.90;;;;;;5015405;28;20029;-74
2024/01/16 11:25:09;;;;;;;1387.13;999.90;;;30.50;99.90;;;;;;5020650;28;20128;-74
2024/01/16 11:27:38;;;;;;;1391.13;999.90;;;30.50;99.90;;;;;;5025535;28;20194;-74
2024/01/16 11:30:07;;;;;;;1377.80;999.90;;;30.50;99.90;;;;;;5021065;28;20025;-71
2024/01/16 11:32:42;;;;;;;1364.47;999.90;;;30.40;99.90;;;;;;5021809;28;20029;-72
2024/01/16 11:35:09;;;;;;;1390.75;999.90;;;30.30;99.90;;;;;;5023718;28;20022;-73
2024/01/16 11:37:39;;;;;;;1366.70;999.90;;;30.30;99.90;;;;;;5025750;28;20555;-75
2024/01/16 11:40:26;;;;;;;1363.50;999.90;;;30.30;99.90;;;;;;5023146;28;20037;-73
2024/01/16 11:42:54;;;;;;;1387.43;999.90;;;30.20;99.90;;;;;;5024008;28;20037;-73
2024/01/16 11:45:30;;;;;;;1395.82;999.90;;;30.10;99.90;;;;;;5023726;28;20105;-72
2024/01/16 11:48:17;;;;;;;1381.85;999.90;;;30.10;99.90;;;;;;5022824;28;20497;-74
2024/01/16 11:50:45;;;;;;;1369.75;999.90;;;30.10;99.90;;;;;;5024548;28;20077;-73
2024/01/16 11:53:32;;;;;;;1389.47;999.90;;;30.10;99.90;;;;;;5020011;28;20204;-74
2024/01/16 11:56:32;;;;;;;1391.55;999.90;;;30.10;99.90;;;;;;5021241;28;20029;-73
2024/01/16 11:59:09;;;;;;;1385.63;999.90;;;30.10;99.90;;;;;;5023027;28;20045;-75
2024/01/16 12:01:36;;;;;;;1361.82;999.90;;;30.10;99.90;;;;;;5020774;28;20034;-75
2024/01/16 12:04:04;;;;;;;1384.55;999.90;;;30.10;99.90;;;;;;5023318;28;20029;-73